Time;durP1;ratioP1;P1;durP2;ratioP2;P2;SDS_P1;SDS_P2;PMS_P1;PMS_P2;Temp;Humidity;BMP_temperature;BMP_pressure;BME280_temperature;BME280_humidity;BME280_pressure;Samples;Min_cycle;Max_cycle;Signal;HPM_P1;HPM_P2
2024/02/07 00:01:40;;;;;;;12.82;1.70;;;;;;;3.65;100.00;100616.94;5056535;28;20057;-79
2024/02/07 00:04:06;;;;;;;15.93;2.15;;;;;;;3.63;100.00;100606.53;5056522;28;20079;-79
2024/02/07 00:06:31;;;;;;;11.80;1.45;;;;;;;3.64;100.00;100610.84;5057057;28;20021;-79
2024/02/07 00:08:57;;;;;;;12.07;2.00;;;;;;;3.64;100.00;100602.97;5056889;28;20473;-78
2024/02/07 00:11:22;;;;;;;14.77;1.80;;;;;;;3.64;100.00;100608.22;5057174;28;20458;-79
2024/02/07 00:13:47;;;;;;;13.18;1.23;;;;;;;3.65;100.00;100609.06;5057314;28;20025;-79
2024/02/07 00:16:13;;;;;;;13.02;1.45;;;;;;;3.65;100.00;100611.69;5056851;28;20087;-78
2024/02/07 00:18:39;;;;;;;9.90;1.70;;;;;;;3.67;100.00;100617.69;5062030;28;20061;-79
2024/02/07 00:21:05;;;;;;;12.55;1.35;;;;;;;3.70;100.00;100622.75;5066350;28;20025;-80
2024/02/07 00:23:30;;;;;;;18.63;2.00;;;;;;;3.70;100.00;100620.09;5074113;28;20079;-80
2024/02/07 00:25:56;;;;;;;6.28;2.15;;;;;;;3.71;100.00;100632.34;5077162;28;20048;-79
2024/02/07 00:28:21;;;;;;;5.72;1.30;;;;;;;3.67;100.00;100621.16;5078766;28;20056;-80
2024/02/07 00:30:47;;;;;;;8.77;1.08;;;;;;;3.66;100.00;100635.25;5079047;28;20021;-79
2024/02/07 00:33:12;;;;;;;4.75;1.10;;;;;;;3.61;100.00;100625.97;5078766;28;20029;-79
2024/02/07 00:35:37;;;;;;;10.07;1.55;;;;;;;3.51;100.00;100629.22;5078407;28;20047;-78
2024/02/07 00:38:03;;;;;;;10.95;1.58;;;;;;;3.42;100.00;100628.94;5071712;28;20033;-79
2024/02/07 00:40:30;;;;;;;12.85;1.30;;;;;;;3.31;100.00;100612.09;5058569;28;20029;-79
2024/02/07 00:42:55;;;;;;;12.77;1.40;;;;;;;3.26;100.00;100602.78;5058191;28;20451;-79
2024/02/07 00:45:21;;;;;;;11.55;1.30;;;;;;;3.20;100.00;100608.44;5057483;28;20033;-79
2024/02/07 00:47:46;;;;;;;12.70;1.30;;;;;;;3.15;100.00;100608.72;5056966;28;20516;-79
2024/02/07 00:50:11;;;;;;;13.52;1.70;;;;;;;3.12;100.00;100609.75;5056228;28;20552;-78
2024/02/07 00:52:37;;;;;;;14.32;2.00;;;;;;;3.12;100.00;100608.91;5056130;28;20021;-80
2024/02/07 00:55:02;;;;;;;9.27;1.13;;;;;;;3.13;100.00;100614.06;5056511;28;20037;-79
2024/02/07 00:57:28;;;;;;;11.75;2.08;;;;;;;3.10;100.00;100609.00;5055896;28;20386;-79
2024/02/07 00:59:53;;;;;;;8.45;1.52;;;;;;;3.10;100.00;100605.53;5055894;28;20025;-79
2024/02/07 01:02:18;;;;;;;7.53;1.27;;;;;;;3.07;100.00;100613.63;5055872;28;20049;-77
2024/02/07 01:04:44;;;;;;;14.48;1.70;;;;;;;3.04;100.00;100613.81;5055940;28;20063;-78
2024/02/07 01:07:09;;;;;;;9.05;1.77;;;;;;;3.04;100.00;100612.03;5055897;28;20033;-79
2024/02/07 01:09:34;;;;;;;13.10;2.30;;;;;;;3.04;100.00;100611.19;5054372;28;20040;-79
2024/02/07 01:12:01;;;;;;;9.25;1.30;;;;;;;3.05;100.00;100611.09;5055898;28;20025;-79
2024/02/07 01:14:26;;;;;;;6.75;1.48;;;;;;;3.04;100.00;100605.94;5055679;28;20083;-78
2024/02/07 01:16:52;;;;;;;10.55;2.35;;;;;;;3.06;100.00;100604.91;5056200;28;20045;-78
2024/02/07 01:19:17;;;;;;;7.72;1.33;;;;;;;3.04;100.00;100600.66;5055361;28;20508;-79
2024/02/07 01:21:44;;;;;;;11.98;1.73;;;;;;;3.04;100.00;100608.56;5055344;28;20124;-78
2024/02/07 01:24:09;;;;;;;11.60;1.42;;;;;;;3.04;100.00;100611.19;5055469;28;20485;-79
2024/02/07 01:26:35;;;;;;;10.85;0.90;;;;;;;3.04;100.00;100613.81;5055041;28;20029;-79
2024/02/07 01:29:01;;;;;;;13.55;2.10;;;;;;;3.02;100.00;100610.44;5055340;28;20370;-79
2024/02/07 01:31:27;;;;;;;10.43;1.23;;;;;;;3.02;100.00;100611.28;5054870;28;20455;-78
2024/02/07 01:33:55;;;;;;;8.95;1.35;;;;;;;3.06;100.00;100623.31;5055121;28;20060;-79
2024/02/07 01:36:22;;;;;;;12.23;1.58;;;;;;;3.08;100.00;100618.78;5055796;28;20082;-79
2024/02/07 01:38:48;;;;;;;9.70;1.35;;;;;;;3.07;100.00;100617.09;5055228;28;20027;-80
2024/02/07 01:41:13;;;;;;;9.25;1.45;;;;;;;3.06;100.00;100614.56;5054622;28;20032;-78
2024/02/07 01:43:39;;;;;;;17.98;1.77;;;;;;;3.05;100.00;100615.50;5055355;28;20021;-78
2024/02/07 01:46:04;;;;;;;10.68;1.63;;;;;;;3.02;100.00;100619.16;5053991;28;20032;-79
2024/02/07 01:48:31;;;;;;;16.63;1.30;;;;;;;3.02;100.00;100619.16;5054975;28;20167;-78
2024/02/07 01:50:57;;;;;;;16.30;1.65;;;;;;;3.00;100.00;100621.03;5055604;28;20032;-79
2024/02/07 01:53:26;;;;;;;13.82;1.45;;;;;;;2.99;100.00;100629.88;5055364;28;20108;-78
2024/02/07 01:55:52;;;;;;;16.05;1.77;;;;;;;2.98;100.00;100623.75;5054862;28;20028;-79
2024/02/07 01:58:18;;;;;;;19.67;1.65;;;;;;;2.97;100.00;100621.22;5055098;28;20029;-80
2024/02/07 02:00:45;;;;;;;12.55;2.42;;;;;;;2.97;100.00;100629.09;5054741;28;20462;-80
2024/02/07 02:03:13;;;;;;;8.48;1.77;;;;;;;2.96;100.00;100635.31;5054497;28;20060;-78
2024/02/07 02:05:39;;;;;;;14.10;1.88;;;;;;;2.92;100.00;100633.81;5055058;28;20037;-79
2024/02/07 02:08:05;;;;;;;7.38;1.33;;;;;;;2.90;100.00;100644.44;5054161;28;20526;-80
2024/02/07 02:10:31;;;;;;;9.80;1.38;;;;;;;2.86;100.00;100642.91;5054582;28;20087;-77
2024/02/07 02:12:57;;;;;;;9.73;1.50;;;;;;;2.86;100.00;100644.72;5054512;28;20021;-80
2024/02/07 02:15:23;;;;;;;10.07;1.50;;;;;;;2.86;100.00;100649.97;5053559;28;20131;-78
2024/02/07 02:17:50;;;;;;;12.43;1.65;;;;;;;2.86;100.00;100647.34;5055032;28;20025;-78
2024/02/07 02:20:17;;;;;;;10.65;1.55;;;;;;;2.83;100.00;100657.09;5054262;28;20035;-79
2024/02/07 02:22:56;;;;;;;7.88;1.10;;;;;;;2.80;100.00;100654.63;5054202;28;20108;-78
2024/02/07 02:25:55;;;;;;;9.05;1.20;;;;;;;2.80;100.00;100656.44;5054179;28;20067;-77
2024/02/07 02:28:36;;;;;;;10.00;1.50;;;;;;;2.79;100.00;100666.13;5053773;28;20348;-79
2024/02/07 02:31:06;;;;;;;10.57;1.23;;;;;;;2.78;100.00;100663.56;5054462;28;20024;-79
2024/02/07 02:33:34;;;;;;;12.60;2.17;;;;;;;2.73;100.00;100670.88;5054217;28;20094;-80
2024/02/07 02:36:01;;;;;;;8.20;1.40;;;;;;;2.63;100.00;100666.19;5054827;28;20029;-79
2024/02/07 02:38:27;;;;;;;8.15;1.38;;;;;;;2.55;100.00;100667.56;5054612;28;20029;-80
2024/02/07 02:40:54;;;;;;;5.50;1.23;;;;;;;2.50;100.00;100673.09;5053875;28;20025;-79
2024/02/07 02:43:22;;;;;;;8.57;1.30;;;;;;;2.44;100.00;100669.06;5053807;28;20035;-79
2024/02/07 02:45:51;;;;;;;12.73;1.77;;;;;;;2.42;100.00;100664.84;5053612;28;20478;-79
2024/02/07 02:48:17;;;;;;;20.42;1.85;;;;;;;2.35;100.00;100659.09;5053730;28;20115;-78
2024/02/07 02:50:42;;;;;;;13.48;1.40;;;;;;;2.31;100.00;100662.00;5054380;28;20056;-79
2024/02/07 02:53:08;;;;;;;10.65;1.30;;;;;;;2.24;100.00;100672.88;5052143;28;20363;-79
2024/02/07 02:55:33;;;;;;;18.08;1.35;;;;;;;2.23;100.00;100659.81;5053868;28;20477;-78
2024/02/07 02:58:00;;;;;;;8.35;1.30;;;;;;;2.18;100.00;100660.09;5053773;28;20035;-78
2024/02/07 03:00:27;;;;;;;14.98;1.85;;;;;;;2.18;100.00;100648.72;5053643;28;20454;-80
2024/02/07 03:02:56;;;;;;;8.82;1.50;;;;;;;2.18;100.00;100648.72;5053189;28;20450;-78
2024/02/07 03:05:45;;;;;;;7.88;1.75;;;;;;;2.18;100.00;100639.09;5053876;28;20112;-79
2024/02/07 03:08:21;;;;;;;9.18;1.17;;;;;;;2.21;100.00;100645.94;5053565;28;20126;-78
2024/02/07 03:10:49;;;;;;;14.23;1.70;;;;;;;2.18;100.00;100640.88;5054050;28;20453;-79
2024/02/07 03:13:15;;;;;;;11.68;1.67;;;;;;;2.20;100.00;100639.00;5054071;28;20048;-78
2024/02/07 03:15:40;;;;;;;18.17;2.28;;;;;;;2.18;100.00;100641.72;5053060;28;20052;-78
2024/02/07 03:18:06;;;;;;;14.05;1.50;;;;;;;2.19;100.00;100642.56;5053545;28;20041;-79
2024/02/07 03:20:32;;;;;;;10.48;1.33;;;;;;;2.18;100.00;100633.84;5053480;28;20458;-79
2024/02/07 03:22:57;;;;;;;7.15;1.55;;;;;;;2.15;100.00;100627.91;5053552;28;20037;-79
2024/02/07 03:25:23;;;;;;;10.68;1.60;;;;;;;2.14;100.00;100624.47;5053171;28;20458;-79
2024/02/07 03:27:49;;;;;;;8.32;1.30;;;;;;;2.11;100.00;100622.84;5052291;28;20029;-80
2024/02/07 03:30:22;;;;;;;10.93;1.50;;;;;;;2.11;100.00;100622.84;5053101;28;20366;-79
2024/02/07 03:32:48;;;;;;;14.50;1.83;;;;;;;2.10;100.00;100626.41;5053065;28;20074;-78
2024/02/07 03:35:14;;;;;;;5.75;1.25;;;;;;;2.08;100.00;100625.66;5053175;28;20025;-79
2024/02/07 03:37:40;;;;;;;14.75;1.92;;;;;;;2.11;100.00;100620.22;5052010;28;20158;-78
2024/02/07 03:40:12;;;;;;;9.75;1.70;;;;;;;2.10;100.00;100623.78;5051803;28;20468;-78
2024/02/07 03:42:41;;;;;;;14.90;1.83;;;;;;;2.13;100.00;100625.38;5052534;28;20025;-78
2024/02/07 03:45:07;;;;;;;12.82;1.90;;;;;;;2.15;100.00;100620.03;5051748;28;20024;-79
2024/02/07 03:47:33;;;;;;;16.50;2.00;;;;;;;2.16;100.00;100627.81;5051389;28;20033;-78
2024/02/07 03:49:58;;;;;;;9.57;1.77;;;;;;;2.18;100.00;100639.09;5052920;28;20032;-78
2024/02/07 03:52:24;;;;;;;13.35;2.10;;;;;;;2.18;100.00;100628.59;5051648;28;20118;-80
2024/02/07 03:54:49;;;;;;;16.83;1.65;;;;;;;2.19;100.00;100626.81;5052971;28;20025;-79
2024/02/07 03:57:19;;;;;;;9.52;1.25;;;;;;;2.21;100.00;100617.06;5052735;28;20108;-80
2024/02/07 03:59:47;;;;;;;14.48;1.52;;;;;;;2.23;100.00;100617.81;5052255;28;20029;-78
2024/02/07 04:02:22;;;;;;;14.05;1.27;;;;;;;2.23;100.00;100623.06;5051950;28;20028;-78
2024/02/07 04:04:52;;;;;;;8.65;1.15;;;;;;;2.22;100.00;100616.13;5053110;28;20104;-79
2024/02/07 04:07:18;;;;;;;11.25;1.73;;;;;;;2.22;100.00;100610.88;5053053;28;20350;-79
2024/02/07 04:09:45;;;;;;;9.30;1.25;;;;;;;2.22;100.00;100606.47;5053614;28;20036;-80
2024/02/07 05:17:10;;;;;;;14.63;1.60;;;;;;;2.54;100.00;100652.75;5055904;28;20087;-78
2024/02/07 05:19:36;;;;;;;8.93;1.35;;;;;;;2.49;100.00;100641.69;5055593;28;20033;-79
2024/02/07 05:22:01;;;;;;;13.15;1.23;;;;;;;2.49;100.00;100647.78;5056252;28;20448;-78
2024/02/07 05:24:27;;;;;;;8.50;1.38;;;;;;;2.46;100.00;100646.19;5055722;28;20418;-78
2024/02/07 05:26:53;;;;;;;13.32;1.80;;;;;;;2.49;100.00;100657.44;5054771;28;20032;-78
2024/02/07 05:29:18;;;;;;;15.43;1.88;;;;;;;2.51;100.00;100666.94;5055338;28;20481;-79
2024/02/07 05:31:44;;;;;;;16.00;2.45;;;;;;;2.53;100.00;100672.91;5054177;28;20036;-78
2024/02/07 05:34:10;;;;;;;17.25;2.50;;;;;;;2.54;100.00;100665.88;5055238;28;20067;-78
2024/02/07 05:36:35;;;;;;;8.07;1.70;;;;;;;2.54;100.00;100674.63;5055346;28;20021;-79
2024/02/07 05:39:02;;;;;;;20.83;2.15;;;;;;;2.54;100.00;100665.88;5055521;28;20029;-79
2024/02/07 05:41:27;;;;;;;16.25;2.15;;;;;;;2.56;100.00;100671.91;5055408;28;20029;-83
2024/02/07 05:43:53;;;;;;;19.45;2.40;;;;;;;2.55;100.00;100680.72;5055439;28;20025;-77
2024/02/07 05:46:20;;;;;;;21.90;2.78;;;;;;;2.52;100.00;100681.72;5055007;28;20489;-78
2024/02/07 05:48:45;;;;;;;15.80;2.17;;;;;;;2.52;100.00;100689.59;5055600;28;20028;-79
2024/02/07 05:51:20;;;;;;;17.15;2.15;;;;;;;2.49;100.00;100689.78;5053875;28;20037;-77
2024/02/07 05:53:46;;;;;;;28.85;3.45;;;;;;;2.46;100.00;100690.84;5054521;28;20025;-77
2024/02/07 05:56:12;;;;;;;25.88;2.95;;;;;;;2.45;100.00;100696.19;5054572;28;20033;-78
2024/02/07 05:58:39;;;;;;;30.35;2.95;;;;;;;2.44;100.00;100695.31;5055115;28;20060;-77
2024/02/07 06:01:07;;;;;;;33.45;3.05;;;;;;;2.42;100.00;100691.94;5054594;28;20025;-78
2024/02/07 06:03:33;;;;;;;33.03;4.47;;;;;;;2.41;100.00;100686.78;5054570;28;20378;-77
2024/02/07 06:05:58;;;;;;;35.00;3.92;;;;;;;2.38;100.00;100692.22;5055040;28;20028;-77
2024/02/07 06:08:24;;;;;;;35.90;4.13;;;;;;;2.36;100.00;100683.56;5054565;28;20116;-77
2024/02/07 06:10:50;;;;;;;34.45;3.67;;;;;;;2.33;100.00;100684.63;5054866;28;20365;-76
2024/02/07 06:13:15;;;;;;;23.25;3.03;;;;;;;2.32;100.00;100688.16;5054561;28;20323;-77
2024/02/07 06:15:41;;;;;;;25.35;3.58;;;;;;;2.31;100.00;100691.72;5054791;28;20109;-78
2024/02/07 06:18:06;;;;;;;32.90;3.80;;;;;;;2.29;100.00;100691.81;5055051;28;20471;-77
2024/02/07 06:20:32;;;;;;;21.42;3.45;;;;;;;2.29;100.00;100697.06;5054624;28;20037;-80
2024/02/07 06:22:58;;;;;;;26.20;2.53;;;;;;;2.28;100.00;100705.91;5053739;28;20028;-78
2024/02/07 06:25:23;;;;;;;22.95;3.85;;;;;;;2.27;100.00;100714.69;5054666;28;20370;-78
2024/02/07 06:27:48;;;;;;;35.90;5.10;;;;;;;2.24;100.00;100714.00;5054991;28;20103;-78
2024/02/07 06:30:14;;;;;;;32.83;4.35;;;;;;;2.19;100.00;100705.56;5054792;28;20450;-78
2024/02/07 06:32:39;;;;;;;22.17;5.00;;;;;;;2.19;100.00;100718.69;5053150;28;20074;-78
2024/02/07 06:35:05;;;;;;;35.85;6.63;;;;;;;2.16;100.00;100709.19;5055164;28;20036;-77
2024/02/07 06:37:30;;;;;;;17.58;5.30;;;;;;;2.15;100.00;100701.41;5054993;28;20040;-77
2024/02/07 06:39:56;;;;;;;35.10;5.78;;;;;;;2.16;100.00;100701.31;5054849;28;20087;-77
2024/02/07 06:42:21;;;;;;;27.55;5.40;;;;;;;2.16;100.00;100701.31;5054873;28;20025;-77
2024/02/07 06:44:46;;;;;;;32.67;5.45;;;;;;;2.17;100.00;100703.03;5055591;28;20033;-77
2024/02/07 06:47:12;;;;;;;27.35;3.58;;;;;;;2.18;100.00;100702.09;5054493;28;20126;-76
2024/02/07 06:49:38;;;;;;;25.13;3.92;;;;;;;2.19;100.00;100711.66;5055336;28;20033;-78
2024/02/07 06:52:03;;;;;;;31.05;4.03;;;;;;;2.19;100.00;100718.69;5054314;28;20036;-78
2024/02/07 06:54:29;;;;;;;20.70;2.42;;;;;;;2.20;100.00;100730.91;5054013;28;20029;-79
2024/02/07 06:56:54;;;;;;;19.85;2.58;;;;;;;2.21;100.00;100732.56;5053807;28;20056;-78
2024/02/07 06:59:19;;;;;;;35.78;5.38;;;;;;;2.20;100.00;100741.41;5053924;28;20449;-77
2024/02/07 07:01:45;;;;;;;23.25;4.53;;;;;;;2.19;100.00;100747.56;5053143;28;20029;-77
2024/02/07 07:04:10;;;;;;;25.10;3.05;;;;;;;2.18;100.00;100753.75;5054128;28;20079;-79
2024/02/07 07:06:36;;;;;;;21.95;3.20;;;;;;;2.16;100.00;100756.47;5036218;28;20040;-77
2024/02/07 07:09:02;;;;;;;23.27;3.10;;;;;;;2.15;100.00;100748.66;5053123;28;20108;-77
2024/02/07 07:11:27;;;;;;;21.10;3.00;;;;;;;2.14;100.00;100744.38;5052165;28;20102;-77
2024/02/07 07:13:57;;;;;;;20.60;2.85;;;;;;;2.13;100.00;100747.91;5053361;28;20067;-77
2024/02/07 07:16:22;;;;;;;19.35;2.80;;;;;;;2.13;100.00;100747.91;5051953;28;20048;-79
2024/02/07 07:18:52;;;;;;;14.98;2.70;;;;;;;2.11;100.00;100759.34;5053207;28;20100;-78
2024/02/07 07:21:18;;;;;;;26.95;3.08;;;;;;;2.12;100.00;100768.09;5055202;28;20032;-78
2024/02/07 07:23:43;;;;;;;22.00;3.05;;;;;;;2.11;100.00;100767.22;5053596;28;20377;-79
2024/02/07 07:26:09;;;;;;;21.30;3.13;;;;;;;2.12;100.00;100762.84;5053409;28;20429;-79
2024/02/07 07:28:34;;;;;;;24.48;4.32;;;;;;;2.11;100.00;100758.50;5052462;28;20033;-80
2024/02/07 07:30:59;;;;;;;15.88;2.92;;;;;;;2.13;100.00;100766.28;5053355;28;20029;-80
2024/02/07 07:33:24;;;;;;;17.48;2.67;;;;;;;2.14;100.00;100765.38;5055257;28;20113;-80
2024/02/07 07:35:50;;;;;;;16.83;2.92;;;;;;;2.15;100.00;100767.03;5056365;28;20029;-79
2024/02/07 07:38:15;;;;;;;34.40;3.92;;;;;;;2.18;100.00;100772.13;5054404;28;20037;-79
2024/02/07 07:40:41;;;;;;;21.88;3.72;;;;;;;2.18;100.00;100767.75;5056603;28;20038;-81
2024/02/07 07:43:07;;;;;;;21.55;2.65;;;;;;;2.20;100.00;100786.03;5073069;28;20035;-81
2024/02/07 07:45:33;;;;;;;17.75;2.92;;;;;;;2.20;100.00;100772.91;5075840;28;20025;-80
2024/02/07 07:47:58;;;;;;;20.38;3.53;;;;;;;2.19;100.00;100773.81;5074545;28;20029;-81
2024/02/07 07:50:23;;;;;;;25.48;3.85;;;;;;;2.20;100.00;100772.91;5076219;28;20100;-79
2024/02/07 07:52:48;;;;;;;21.13;3.55;;;;;;;2.21;100.00;100779.81;5075325;28;20021;-82
2024/02/07 07:55:15;;;;;;;22.77;3.25;;;;;;;2.24;100.00;100777.03;5073339;28;20053;-80
2024/02/07 07:57:41;;;;;;;22.52;3.47;;;;;;;2.25;100.00;100784.81;5070300;28;20033;-80
2024/02/07 08:00:07;;;;;;;20.85;3.50;;;;;;;2.27;100.00;100790.00;5054454;28;20036;-80
2024/02/07 08:02:32;;;;;;;20.08;3.53;;;;;;;2.28;100.00;100789.91;5053312;28;20021;-80
2024/02/07 08:04:57;;;;;;;21.65;3.15;;;;;;;2.28;100.00;100792.53;5052805;28;20508;-80
2024/02/07 08:07:23;;;;;;;23.95;3.33;;;;;;;2.28;100.00;100795.16;5053349;28;20363;-80
2024/02/07 08:09:48;;;;;;;23.25;3.42;;;;;;;2.32;100.00;100795.00;5051082;28;20033;-82
2024/02/07 08:12:14;;;;;;;15.57;2.67;;;;;;;2.34;100.00;100803.63;5052212;28;20463;-81
2024/02/07 08:14:40;;;;;;;23.13;3.47;;;;;;;2.38;100.00;100808.59;5055537;28;20029;-81
2024/02/07 08:17:06;;;;;;;32.30;3.47;;;;;;;2.39;100.00;100810.31;5056267;28;20052;-80
2024/02/07 08:19:31;;;;;;;33.67;3.88;;;;;;;2.42;100.00;100810.13;5056059;28;20028;-81
2024/02/07 08:21:56;;;;;;;21.25;2.47;;;;;;;2.46;100.00;100816.03;5056155;28;20409;-79
2024/02/07 08:24:22;;;;;;;27.70;4.13;;;;;;;2.49;100.00;100813.25;5056493;28;20025;-84
2024/02/07 08:26:47;;;;;;;24.17;3.10;;;;;;;2.56;100.00;100813.75;5056274;28;20032;-81
2024/02/07 08:29:13;;;;;;;25.90;3.38;;;;;;;2.59;100.00;100813.56;5056168;28;20028;-81
2024/02/07 08:31:39;;;;;;;21.58;3.85;;;;;;;2.65;100.00;100818.47;5056498;28;20469;-81
2024/02/07 08:34:04;;;;;;;25.42;3.17;;;;;;;2.71;100.00;100817.28;5056317;28;20025;-81
2024/02/07 08:36:30;;;;;;;32.03;3.65;;;;;;;2.74;100.00;100815.31;5056147;28;20032;-81
2024/02/07 08:38:55;;;;;;;26.35;2.95;;;;;;;2.79;100.00;100825.53;5056305;28;20033;-81
2024/02/07 08:41:21;;;;;;;21.92;3.50;;;;;;;2.85;100.00;100826.97;5056461;28;20407;-82
2024/02/07 08:43:47;;;;;;;28.70;4.55;;;;;;;2.85;100.00;100837.47;5056267;28;20075;-82
2024/02/07 08:46:12;;;;;;;29.92;3.67;;;;;;;2.85;100.00;100821.72;5056100;28;20365;-81
2024/02/07 08:48:38;;;;;;;37.25;4.57;;;;;;;2.90;100.00;100832.81;5056406;28;20040;-80
2024/02/07 08:51:03;;;;;;;17.10;3.03;;;;;;;2.93;100.00;100835.28;5055219;28;20083;-80
2024/02/07 08:53:29;;;;;;;23.70;3.03;;;;;;;3.00;100.00;100847.09;5054704;28;20108;-81
2024/02/07 08:55:55;;;;;;;34.40;4.22;;;;;;;3.08;100.00;100841.41;5056806;28;20362;-79
2024/02/07 08:58:21;;;;;;;25.90;3.38;;;;;;;3.21;100.00;100852.03;5056275;28;20413;-79
2024/02/07 09:00:47;;;;;;;30.63;3.85;;;;;;;3.35;100.00;100849.44;5056467;28;20021;-81
2024/02/07 09:03:12;;;;;;;32.90;3.78;;;;;;;3.56;100.00;100831.50;5055832;28;20029;-77
2024/02/07 09:05:37;;;;;;;35.83;4.13;;;;;;;3.77;100.00;100831.13;5054597;28;20083;-78
2024/02/07 09:08:03;;;;;;;21.98;3.85;;;;;;;3.93;100.00;100831.84;5055824;28;20033;-79
2024/02/07 09:10:30;;;;;;;28.50;3.50;;;;;;;4.07;100.00;100836.22;5054468;28;20033;-78
2024/02/07 09:12:56;;;;;;;31.45;3.72;;;;;;;4.25;100.00;100844.75;5055982;28;20056;-81
2024/02/07 09:15:21;;;;;;;25.52;3.15;;;;;;;4.43;100.00;100836.63;5054527;28;20056;-79
2024/02/07 09:17:46;;;;;;;27.08;3.85;;;;;;;4.58;100.00;100835.59;5055329;28;20394;-80
2024/02/07 09:20:14;;;;;;;22.65;3.70;;;;;;;4.69;100.00;100827.00;5054830;28;20081;-79
2024/02/07 09:22:41;;;;;;;23.92;2.63;;;;;;;4.61;100.00;100816.94;5055324;28;20028;-80
2024/02/07 09:25:06;;;;;;;35.67;4.03;;;;;;;4.57;100.00;100816.31;5055198;28;20035;-78
2024/02/07 09:27:32;;;;;;;24.30;3.30;;;;;;;4.53;100.00;100812.19;5055765;28;20116;-80
2024/02/07 09:29:57;;;;;;;18.60;3.28;;;;;;;4.48;100.00;100816.06;5055720;28;20087;-82
2024/02/07 09:32:23;;;;;;;25.20;5.07;;;;;;;4.50;100.00;100815.03;5055760;28;20046;-83
2024/02/07 09:34:49;;;;;;;28.45;6.13;;;;;;;4.57;100.00;100811.06;5055443;28;20025;-82
2024/02/07 09:37:14;;;;;;;24.92;4.35;;;;;;;4.69;100.00;100819.13;5055077;28;20036;-80
2024/02/07 09:39:40;;;;;;;31.65;4.20;;;;;;;4.80;100.00;100821.03;5055369;28;20031;-80
2024/02/07 09:42:07;;;;;;;22.48;3.22;;;;;;;4.82;100.00;100827.91;5055770;28;20104;-80
2024/02/07 09:44:35;;;;;;;32.67;3.55;;;;;;;4.80;100.00;100819.22;5054982;28;20029;-79
2024/02/07 09:47:00;;;;;;;21.63;2.70;;;;;;;4.84;100.00;100823.34;5055106;28;20125;-81
2024/02/07 09:49:28;;;;;;;23.35;2.67;;;;;;;4.87;100.00;100806.50;5054929;28;20141;-81
2024/02/07 09:51:54;;;;;;;19.15;2.40;;;;;;;4.94;100.00;100800.69;5055266;28;20040;-80
2024/02/07 09:54:19;;;;;;;21.17;3.75;;;;;;;5.06;100.00;100798.16;5054716;28;20029;-80
2024/02/07 09:56:46;;;;;;;32.10;3.70;;;;;;;5.13;100.00;100802.06;5055080;28;20025;-80
2024/02/07 09:59:12;;;;;;;22.80;2.92;;;;;;;5.26;100.00;100807.38;5054659;28;20059;-78
2024/02/07 10:01:39;;;;;;;21.67;2.83;;;;;;;5.25;100.00;100801.22;5055069;28;20102;-77
2024/02/07 10:04:15;;;;;;;25.52;3.53;;;;;;;5.28;100.00;100794.91;5054904;28;20378;-80
2024/02/07 10:06:41;;;;;;;15.70;2.85;;;;;;;5.30;100.00;100790.38;5054613;28;20024;-82
2024/02/07 10:09:08;;;;;;;15.38;2.53;;;;;;;5.34;100.00;100786.56;5055432;28;20035;-82
2024/02/07 10:11:36;;;;;;;23.50;2.83;;;;;;;5.38;100.00;100784.56;5054648;28;20059;-81
2024/02/07 10:14:03;;;;;;;21.13;3.53;;;;;;;5.46;100.00;100793.66;5055048;28;20025;-81
2024/02/07 10:16:28;;;;;;;21.90;4.15;;;;;;;5.55;100.00;100793.94;5054458;28;20557;-82
2024/02/07 10:18:55;;;;;;;24.13;3.28;;;;;;;5.68;100.00;100802.69;5052873;28;20040;-80
2024/02/07 10:21:34;;;;;;;16.38;2.97;;;;;;;5.72;100.00;100801.53;5053251;28;20028;-82
2024/02/07 10:24:00;;;;;;;26.08;3.03;;;;;;;5.85;100.00;100798.00;5054738;28;20447;-82
2024/02/07 10:26:26;;;;;;;27.05;4.18;;;;;;;6.10;100.00;100794.47;5053488;28;20029;-81
2024/02/07 10:29:05;;;;;;;20.75;2.95;;;;;;;6.38;100.00;100790.66;5054298;28;20558;-82
2024/02/07 10:31:30;;;;;;;22.13;2.90;;;;;;;6.60;100.00;100797.84;5055116;28;20036;-81
2024/02/07 10:33:59;;;;;;;16.52;2.55;;;;;;;7.01;100.00;100796.50;5054652;28;20373;-80
2024/02/07 10:36:24;;;;;;;24.75;3.38;;;;;;;7.17;100.00;100790.06;5053938;28;20025;-81
2024/02/07 10:39:02;;;;;;;25.45;3.38;;;;;;;7.30;100.00;100787.28;5054280;28;20117;-81
2024/02/07 10:41:28;;;;;;;15.95;2.88;;;;;;;7.34;100.00;100786.09;5054318;28;20043;-82
2024/02/07 10:44:04;;;;;;;27.70;2.60;;;;;;;7.31;100.00;100781.88;5054266;28;20109;-81
2024/02/07 10:46:29;;;;;;;19.10;2.90;;;;;;;7.46;100.00;100797.53;5054394;28;20036;-82
2024/02/07 10:48:54;;;;;;;19.15;2.75;;;;;;;7.77;100.00;100790.66;5054138;28;20029;-80
2024/02/07 10:51:20;;;;;;;18.23;2.85;;;;;;;7.90;100.00;100783.44;5054420;28;20401;-79
2024/02/07 10:53:54;;;;;;;20.25;3.38;;;;;;;7.75;100.00;100793.44;5054199;28;20029;-79
2024/02/07 10:56:21;;;;;;;18.45;2.75;;;;;;;7.91;100.00;100797.50;5054443;28;20116;-81
2024/02/07 10:58:47;;;;;;;22.83;3.75;;;;;;;8.08;100.00;100796.16;5052874;28;20116;-81
2024/02/07 11:01:13;;;;;;;17.73;2.95;;;;;;;8.30;100.00;100793.44;5054551;28;20063;-78
2024/02/07 11:03:39;;;;;;;17.88;2.47;;;;;;;8.59;100.00;100800.00;5052458;28;20060;-80
2024/02/07 11:06:04;;;;;;;22.00;3.70;;;;;;;8.64;100.00;100809.28;5053380;28;20075;-79
2024/02/07 11:08:30;;;;;;;21.15;2.88;;;;;;;9.03;100.00;100803.38;5054404;28;20033;-81
2024/02/07 11:10:56;;;;;;;22.45;2.92;;;;;;;9.39;100.00;100805.69;5053205;28;20473;-80
2024/02/07 11:13:22;;;;;;;16.65;4.00;;;;;;;9.68;100.00;100801.34;5053738;28;20025;-81
2024/02/07 11:15:48;;;;;;;21.98;3.47;;;;;;;9.81;100.00;100797.63;5053497;28;20025;-80
2024/02/07 11:18:13;;;;;;;17.88;2.85;;;;;;;9.96;100.00;100798.94;5052896;28;20043;-80
2024/02/07 11:20:40;;;;;;;27.48;3.50;;;;;;;9.74;100.00;100794.66;5053829;28;20447;-80
2024/02/07 11:23:38;;;;;;;17.80;3.47;;;;;;;9.31;100.00;100791.25;5053579;28;20027;-80
2024/02/07 11:26:05;;;;;;;16.40;2.83;;;;;;;9.04;100.00;100797.13;5030205;28;20186;-79
2024/02/07 11:28:30;;;;;;;17.75;2.75;;;;;;;8.73;100.00;100802.38;5053046;28;20044;-79
2024/02/07 11:30:58;;;;;;;26.15;3.35;;;;;;;8.39;100.00;100804.25;5051785;28;20120;-78
2024/02/07 11:33:24;;;;;;;18.25;2.60;;;;;;;8.22;100.00;100808.28;5052867;28;20130;-79
2024/02/07 11:35:49;;;;;;;20.40;3.45;;;;;;;8.11;100.00;100806.50;5052845;28;20028;-77
2024/02/07 11:38:18;;;;;;;18.13;2.97;;;;;;;7.95;100.00;100794.47;5053181;28;20021;-77
2024/02/07 11:40:44;;;;;;;21.50;3.22;;;;;;;7.92;100.00;100793.91;5053613;28;20036;-78
2024/02/07 11:43:20;;;;;;;20.00;2.60;;;;;;;8.02;100.00;100788.72;5053390;28;20025;-76
2024/02/07 11:45:47;;;;;;;19.45;2.42;;;;;;;7.81;100.00;100778.00;5053260;28;20029;-79
2024/02/07 11:48:24;;;;;;;18.30;2.95;;;;;;;7.70;100.00;100774.44;5053706;28;20033;-79
2024/02/07 11:50:50;;;;;;;20.40;2.20;;;;;;;7.74;100.00;100770.56;5057124;28;20040;-80
2024/02/07 11:53:26;;;;;;;7.40;1.90;;;;;;;7.77;100.00;100766.81;5056254;28;20342;-79
2024/02/07 11:55:52;;;;;;;19.02;4.13;;;;;;;7.88;100.00;100764.19;5057049;28;20427;-80
2024/02/07 11:58:18;;;;;;;13.73;2.47;;;;;;;7.88;100.00;100764.19;5056833;28;20021;-81
2024/02/07 12:00:44;;;;;;;17.40;3.00;;;;;;;8.17;100.00;100754.81;5055651;28;20025;-77
2024/02/07 12:03:16;;;;;;;15.38;2.10;;;;;;;8.32;100.00;100755.38;5056450;28;20115;-80
2024/02/07 12:05:43;;;;;;;15.52;2.50;;;;;;;8.53;100.00;100750.13;5056491;28;20060;-83
2024/02/07 12:08:10;;;;;;;18.80;3.45;;;;;;;8.77;100.00;100760.50;5056350;28;20543;-82
2024/02/07 12:10:36;;;;;;;12.40;2.38;;;;;;;9.09;100.00;100754.25;5056581;28;20033;-78
2024/02/07 12:13:02;;;;;;;12.38;2.47;;;;;;;9.65;100.00;100756.44;5056503;28;20425;-77
2024/02/07 12:15:31;;;;;;;16.75;2.75;;;;;;;10.00;100.00;100746.31;5056336;28;20410;-79
2024/02/07 12:17:56;;;;;;;19.90;2.72;;;;;;;10.38;100.00;100758.00;5057061;28;20045;-78
2024/02/07 12:20:27;;;;;;;20.58;2.60;;;;;;;10.61;100.00;100749.75;5055311;28;20033;-78
2024/02/07 12:22:58;;;;;;;12.10;2.70;;;;;;;10.33;100.00;100750.47;5056831;28;20123;-78